Time;durP1;ratioP1;P1;durP2;ratioP2;P2;SDS_P1;SDS_P2;PMS_P1;PMS_P2;Temp;Humidity;BMP_temperature;BMP_pressure;BME280_temperature;BME280_humidity;BME280_pressure;Samples;Min_cycle;Max_cycle;Signal;HPM_P1;HPM_P2
2022/10/04 00:02:03;;;;;;;9.40;9.10;;;7.50;99.90;;;;;;5081970;28;20222;-82
2022/10/04 00:04:35;;;;;;;9.73;9.43;;;7.50;99.90;;;;;;5082255;28;20237;-82
2022/10/04 00:07:10;;;;;;;9.60;9.30;;;7.40;99.90;;;;;;5098289;28;20296;-81
2022/10/04 00:09:45;;;;;;;9.50;9.20;;;7.40;99.90;;;;;;5099088;28;20218;-81
2022/10/04 00:12:28;;;;;;;9.70;9.40;;;7.40;99.90;;;;;;5099170;28;20240;-81
2022/10/04 00:14:58;;;;;;;9.70;9.40;;;7.30;99.90;;;;;;5099450;28;20298;-81
2022/10/04 00:17:35;;;;;;;9.40;9.10;;;7.30;99.90;;;;;;5095464;28;20226;-81
2022/10/04 00:20:07;;;;;;;9.70;9.40;;;7.20;99.90;;;;;;5086879;28;20206;-81
2022/10/04 00:22:34;;;;;;;9.80;9.50;;;7.20;99.90;;;;;;5084185;28;20302;-81
2022/10/04 00:25:20;;;;;;;9.70;9.40;;;7.20;99.90;;;;;;5083205;28;20240;-81
2022/10/04 00:28:36;;;;;;;9.90;9.60;;;7.10;99.90;;;;;;5083615;28;20245;-81
2022/10/04 00:31:20;;;;;;;9.80;9.50;;;6.90;99.90;;;;;;5082880;28;20244;-81
2022/10/04 00:33:58;;;;;;;9.80;9.50;;;6.90;99.90;;;;;;5082459;28;20240;-80
2022/10/04 00:36:55;;;;;;;9.73;9.43;;;6.90;99.90;;;;;;5081714;28;20244;-81
2022/10/04 00:39:44;;;;;;;9.70;9.40;;;6.80;99.90;;;;;;5079580;28;20687;-81
2022/10/04 00:42:52;;;;;;;9.47;9.17;;;6.90;99.90;;;;;;5083144;28;20282;-81
2022/10/04 00:45:34;;;;;;;9.70;9.40;;;6.80;99.90;;;;;;5082475;28;20322;-81
2022/10/04 00:48:38;;;;;;;9.93;9.63;;;6.80;99.90;;;;;;5082785;28;20269;-81
2022/10/04 00:51:18;;;;;;;9.97;9.67;;;6.80;99.90;;;;;;5081939;28;20233;-81
2022/10/04 00:53:57;;;;;;;10.00;9.70;;;6.80;99.90;;;;;;5082809;28;20236;-82
2022/10/04 00:56:33;;;;;;;9.90;9.60;;;6.70;99.90;;;;;;5082207;28;20230;-81
2022/10/04 00:59:29;;;;;;;9.97;9.67;;;6.70;99.90;;;;;;5092339;28;20293;-81
2022/10/04 01:02:09;;;;;;;10.10;9.80;;;6.70;99.90;;;;;;5088600;28;20236;-81
2022/10/04 01:04:48;;;;;;;9.70;9.40;;;6.60;99.90;;;;;;5083717;28;20245;-81
2022/10/04 01:07:24;;;;;;;10.00;9.70;;;6.60;99.90;;;;;;5084603;28;20264;-81
2022/10/04 01:09:56;;;;;;;10.00;9.70;;;6.60;99.90;;;;;;5083330;28;20229;-81
2022/10/04 01:12:44;;;;;;;9.97;9.67;;;6.50;99.90;;;;;;5082821;28;20337;-81
2022/10/04 01:15:19;;;;;;;9.80;9.50;;;6.50;99.90;;;;;;5081960;28;20353;-81
2022/10/04 01:18:15;;;;;;;9.80;9.50;;;6.40;99.90;;;;;;5082184;28;20229;-81
2022/10/04 01:20:54;;;;;;;10.00;9.70;;;6.40;99.90;;;;;;5072938;28;20308;-81
2022/10/04 01:23:51;;;;;;;10.20;9.90;;;6.40;99.90;;;;;;5082537;28;20230;-81
2022/10/04 01:26:45;;;;;;;9.80;9.50;;;6.40;99.90;;;;;;5046286;28;20226;-81
2022/10/04 01:29:17;;;;;;;9.70;9.40;;;6.40;99.90;;;;;;5063311;28;20237;-81
2022/10/04 01:31:47;;;;;;;9.60;9.30;;;6.40;99.90;;;;;;5081561;28;20262;-81
2022/10/04 01:34:23;;;;;;;9.70;9.40;;;6.40;99.90;;;;;;5081776;28;20234;-81
2022/10/04 01:36:54;;;;;;;9.87;9.57;;;6.40;99.90;;;;;;5082376;28;20220;-82
2022/10/04 01:39:30;;;;;;;9.87;9.57;;;6.40;99.90;;;;;;5083697;28;20283;-81
2022/10/04 01:42:09;;;;;;;9.70;9.40;;;6.40;99.90;;;;;;5081886;28;20320;-81
2022/10/04 01:44:46;;;;;;;9.70;9.40;;;6.40;99.90;;;;;;5082753;28;20232;-82
2022/10/04 01:47:25;;;;;;;9.73;9.43;;;6.40;99.90;;;;;;5091213;28;20236;-81
2022/10/04 01:49:57;;;;;;;9.70;9.40;;;6.40;99.90;;;;;;5085008;28;20779;-81
2022/10/04 01:52:32;;;;;;;9.90;9.60;;;6.30;99.90;;;;;;5084450;28;20230;-81
2022/10/04 01:55:10;;;;;;;9.83;9.53;;;6.30;99.90;;;;;;5082721;28;20256;-81
2022/10/04 01:57:49;;;;;;;9.90;9.60;;;6.20;99.90;;;;;;5082912;28;20210;-81
2022/10/04 02:00:20;;;;;;;9.90;9.60;;;6.20;99.90;;;;;;5083540;28;20280;-81
2022/10/04 02:02:57;;;;;;;9.90;9.60;;;6.20;99.90;;;;;;5092995;28;20238;-81
2022/10/04 02:05:35;;;;;;;9.93;9.63;;;6.10;99.90;;;;;;5093546;28;20225;-81
2022/10/04 02:08:08;;;;;;;10.00;9.70;;;6.10;99.90;;;;;;5093905;28;20222;-81
2022/10/04 02:10:43;;;;;;;10.10;9.80;;;6.00;99.90;;;;;;5094027;28;20218;-81
2022/10/04 02:13:17;;;;;;;10.20;9.90;;;6.00;99.90;;;;;;5094120;28;20217;-81
2022/10/04 02:15:49;;;;;;;9.93;9.63;;;6.00;99.90;;;;;;5093013;28;20226;-80
2022/10/04 02:18:20;;;;;;;10.17;9.87;;;5.90;99.90;;;;;;5093184;28;20230;-81
2022/10/04 02:20:49;;;;;;;9.80;9.50;;;6.00;99.90;;;;;;5093541;28;20266;-81
2022/10/04 02:23:19;;;;;;;10.10;9.80;;;5.90;99.90;;;;;;5090681;28;20303;-81
2022/10/04 02:25:50;;;;;;;9.90;9.60;;;5.90;99.90;;;;;;5091222;28;20236;-81
2022/10/04 02:28:18;;;;;;;9.97;9.67;;;5.90;99.90;;;;;;5092517;28;20205;-81
2022/10/04 02:33:33;;;;;;;9.83;9.53;;;5.90;99.90;;;;;;5084638;28;20222;-81
2022/10/04 02:36:04;;;;;;;9.73;9.43;;;6.00;99.90;;;;;;5085436;28;20236;-81
2022/10/04 02:38:41;;;;;;;9.60;9.30;;;6.00;99.90;;;;;;5085832;28;20218;-80
2022/10/04 02:41:23;;;;;;;9.60;9.30;;;6.00;99.90;;;;;;5084982;28;20285;-81
2022/10/04 02:43:57;;;;;;;9.77;9.47;;;6.00;99.90;;;;;;5091935;28;20265;-82
2022/10/04 02:46:29;;;;;;;9.77;9.47;;;5.90;99.90;;;;;;5087008;28;20609;-81
2022/10/04 02:48:59;;;;;;;10.00;9.70;;;5.90;99.90;;;;;;5093286;28;20322;-81
2022/10/04 02:51:35;;;;;;;9.80;9.50;;;5.80;99.90;;;;;;5092609;28;20280;-81
2022/10/04 02:54:15;;;;;;;9.90;9.60;;;5.70;99.90;;;;;;5090127;28;20260;-81
2022/10/04 02:56:45;;;;;;;9.70;9.40;;;5.70;99.90;;;;;;5091624;28;20234;-81
2022/10/04 02:59:21;;;;;;;10.20;9.90;;;5.70;99.90;;;;;;5090593;28;20234;-81
2022/10/04 03:01:54;;;;;;;10.20;9.90;;;5.70;99.90;;;;;;5086827;28;20320;-80
2022/10/04 03:04:30;;;;;;;9.90;9.60;;;5.60;99.90;;;;;;5092078;28;20217;-81
2022/10/04 03:07:00;;;;;;;10.07;9.77;;;5.60;99.90;;;;;;5095594;28;20227;-81
2022/10/04 03:09:28;;;;;;;9.80;9.50;;;5.60;99.90;;;;;;5097395;28;20226;-81
2022/10/04 03:12:08;;;;;;;9.63;9.33;;;5.70;99.90;;;;;;5097558;28;20222;-81
2022/10/04 03:14:37;;;;;;;9.90;9.60;;;5.60;99.90;;;;;;5097825;28;20230;-82
2022/10/04 03:17:06;;;;;;;9.83;9.53;;;5.70;99.90;;;;;;5097884;28;20232;-81
2022/10/04 03:19:36;;;;;;;9.70;9.40;;;5.60;99.90;;;;;;5098343;28;20203;-81
2022/10/04 03:22:14;;;;;;;9.73;9.43;;;5.60;99.90;;;;;;5089635;28;20234;-79
2022/10/04 03:27:39;;;;;;;9.73;9.43;;;5.60;99.90;;;;;;5087414;28;20232;-79
2022/10/04 03:30:18;;;;;;;9.30;9.00;;;5.70;99.90;;;;;;5090483;28;20228;-78
2022/10/04 03:32:47;;;;;;;9.70;9.40;;;5.60;99.90;;;;;;5091377;28;20230;-79
2022/10/04 03:35:25;;;;;;;9.50;9.20;;;5.60;99.90;;;;;;5097347;28;20238;-82
2022/10/04 03:37:55;;;;;;;9.60;9.30;;;5.60;99.90;;;;;;5101096;28;20249;-81
2022/10/04 03:40:36;;;;;;;9.57;9.27;;;5.60;99.90;;;;;;5101733;28;20222;-82
2022/10/04 03:43:11;;;;;;;9.57;9.27;;;5.60;99.90;;;;;;5101751;28;20226;-82
2022/10/04 03:45:40;;;;;;;9.90;9.60;;;5.60;99.90;;;;;;5097570;28;20324;-82
2022/10/04 03:48:15;;;;;;;9.57;9.27;;;5.60;99.90;;;;;;5089723;28;20240;-81
2022/10/04 03:50:48;;;;;;;9.63;9.33;;;5.60;99.90;;;;;;5088693;28;20228;-82
2022/10/04 03:53:36;;;;;;;9.60;9.30;;;5.50;99.90;;;;;;5088668;28;20230;-82
2022/10/04 03:56:13;;;;;;;9.47;9.17;;;5.50;99.90;;;;;;5088973;28;20240;-83
2022/10/04 03:58:51;;;;;;;9.63;9.33;;;5.50;99.90;;;;;;5090006;28;20380;-83
2022/10/04 04:01:39;;;;;;;9.60;9.30;;;5.50;99.90;;;;;;5083086;28;20230;-82
2022/10/04 04:04:27;;;;;;;9.70;9.40;;;5.50;99.90;;;;;;5083442;28;20249;-81
2022/10/04 04:07:03;;;;;;;10.00;9.70;;;5.50;99.90;;;;;;5083633;28;20226;-81
2022/10/04 04:09:42;;;;;;;9.80;9.50;;;5.40;99.90;;;;;;5082759;28;20218;-82
2022/10/04 04:12:20;;;;;;;9.73;9.43;;;5.40;99.90;;;;;;5082937;28;20240;-82
2022/10/04 04:14:58;;;;;;;9.90;9.60;;;5.40;99.90;;;;;;5082959;28;20229;-81
2022/10/04 04:17:39;;;;;;;9.63;9.33;;;5.40;99.90;;;;;;5083192;28;20233;-81
2022/10/04 04:20:24;;;;;;;9.63;9.33;;;5.40;99.90;;;;;;5082956;28;20733;-82
2022/10/04 04:23:02;;;;;;;9.70;9.40;;;5.50;99.90;;;;;;5083023;28;20245;-82
2022/10/04 04:25:34;;;;;;;9.80;9.50;;;5.40;99.90;;;;;;5082989;28;20230;-82
2022/10/04 04:28:12;;;;;;;9.80;9.50;;;5.50;99.90;;;;;;5083067;28;20222;-81
2022/10/04 04:30:47;;;;;;;9.63;9.33;;;5.40;99.90;;;;;;5082024;28;20237;-82
2022/10/04 04:33:26;;;;;;;9.60;9.30;;;5.40;99.90;;;;;;5082351;28;20237;-82
2022/10/04 04:36:05;;;;;;;9.70;9.40;;;5.40;99.90;;;;;;5081953;28;20253;-81
2022/10/04 04:38:34;;;;;;;9.73;9.43;;;5.40;99.90;;;;;;5082701;28;20233;-81
2022/10/04 04:41:11;;;;;;;9.77;9.47;;;5.40;99.90;;;;;;5082090;28;20237;-81
2022/10/04 04:43:44;;;;;;;9.70;9.40;;;5.30;99.90;;;;;;5093527;28;20230;-82
2022/10/04 04:46:13;;;;;;;9.90;9.60;;;5.30;99.90;;;;;;5083367;28;20230;-81
2022/10/04 04:48:49;;;;;;;9.90;9.60;;;5.20;99.90;;;;;;5084565;28;20246;-82
2022/10/04 04:51:27;;;;;;;9.70;9.40;;;5.20;99.90;;;;;;5083618;28;20229;-81
2022/10/04 04:53:57;;;;;;;10.00;9.70;;;5.20;99.90;;;;;;5082869;28;20222;-82
2022/10/04 04:56:28;;;;;;;9.80;9.50;;;5.20;99.90;;;;;;5082466;28;20250;-82
2022/10/04 04:59:01;;;;;;;9.83;9.53;;;5.30;99.90;;;;;;5082357;28;20229;-82
2022/10/04 05:01:35;;;;;;;9.90;9.60;;;5.30;99.90;;;;;;5082543;28;20242;-81
2022/10/04 05:04:14;;;;;;;9.67;9.37;;;5.30;99.90;;;;;;5083524;28;20229;-81
2022/10/04 05:06:44;;;;;;;10.10;9.80;;;5.40;99.90;;;;;;5082586;28;20313;-81
2022/10/04 05:09:31;;;;;;;10.43;10.13;;;5.40;99.90;;;;;;5082099;28;20345;-82
2022/10/04 05:12:06;;;;;;;10.30;10.00;;;5.40;99.90;;;;;;5081375;28;20225;-81
2022/10/04 05:14:38;;;;;;;10.30;10.00;;;5.40;99.90;;;;;;5081450;28;20245;-82
2022/10/04 05:17:19;;;;;;;10.47;10.17;;;5.40;99.90;;;;;;5082192;28;20724;-82
2022/10/04 05:19:47;;;;;;;10.47;10.17;;;5.40;99.90;;;;;;5082236;28;20575;-81
2022/10/04 05:22:24;;;;;;;10.20;9.90;;;5.40;99.90;;;;;;5081587;28;20272;-81
2022/10/04 05:24:55;;;;;;;10.10;9.80;;;5.40;99.90;;;;;;5081240;28;20268;-82
2022/10/04 05:27:32;;;;;;;10.20;9.90;;;5.40;99.90;;;;;;5082774;28;20266;-81
2022/10/04 05:30:10;;;;;;;10.30;10.00;;;5.40;99.90;;;;;;5081794;28;20226;-82
2022/10/04 05:32:58;;;;;;;10.20;9.90;;;5.50;99.90;;;;;;5082188;28;20289;-81
2022/10/04 05:35:28;;;;;;;10.30;10.00;;;5.50;99.90;;;;;;5082047;28;20288;-81
2022/10/04 05:38:05;;;;;;;10.30;10.00;;;5.50;99.90;;;;;;5082041;28;20229;-80
2022/10/04 05:40:43;;;;;;;9.90;9.60;;;5.50;99.90;;;;;;5082074;28;20236;-81
2022/10/04 05:43:30;;;;;;;10.10;9.80;;;5.50;99.90;;;;;;5082187;28;20234;-81
2022/10/04 05:46:26;;;;;;;10.27;9.97;;;5.50;99.90;;;;;;5082207;28;20329;-82
2022/10/04 05:49:07;;;;;;;10.00;9.70;;;5.50;99.90;;;;;;5072808;28;20260;-84
2022/10/04 05:51:50;;;;;;;10.00;9.70;;;5.50;99.90;;;;;;5081598;28;20693;-83
2022/10/04 05:54:29;;;;;;;10.10;9.80;;;5.50;99.90;;;;;;5082855;28;20238;-82
2022/10/04 05:57:36;;;;;;;9.60;9.30;;;5.50;99.90;;;;;;5084553;28;20272;-83
2022/10/04 06:00:15;;;;;;;9.53;9.23;;;5.50;99.90;;;;;;5082665;28;20253;-83
2022/10/04 06:03:25;;;;;;;9.70;9.40;;;5.50;99.90;;;;;;5080109;28;20232;-83
2022/10/04 06:06:05;;;;;;;9.57;9.27;;;5.50;99.90;;;;;;5065961;28;20696;-83
2022/10/04 06:08:52;;;;;;;10.03;9.73;;;5.50;99.90;;;;;;5080234;28;20226;-83
2022/10/04 06:11:47;;;;;;;10.27;9.97;;;5.60;99.90;;;;;;5080552;28;20238;-83
2022/10/04 06:15:08;;;;;;;9.90;9.60;;;5.60;99.90;;;;;;5081122;28;20218;-86
2022/10/04 06:18:14;;;;;;;10.03;9.73;;;5.70;99.90;;;;;;4999118;28;20259;-85
2022/10/04 06:21:35;;;;;;;9.70;9.40;;;5.80;99.90;;;;;;5081143;28;20316;-85
2022/10/04 06:24:13;;;;;;;10.00;9.70;;;5.90;99.90;;;;;;5082700;28;20234;-82
2022/10/04 06:26:46;;;;;;;10.00;9.70;;;5.90;99.90;;;;;;5082848;28;20218;-84
2022/10/04 06:29:21;;;;;;;10.17;9.87;;;6.00;99.90;;;;;;5081073;28;20304;-83
2022/10/04 06:32:37;;;;;;;10.10;9.80;;;6.00;99.90;;;;;;5079680;28;20236;-82
2022/10/04 06:35:48;;;;;;;10.00;9.70;;;6.10;99.90;;;;;;5070175;28;20345;-84
2022/10/04 06:39:02;;;;;;;10.20;9.90;;;6.30;99.90;;;;;;5082253;28;20240;-83
2022/10/04 06:42:06;;;;;;;10.10;9.80;;;6.40;99.90;;;;;;5081440;28;20233;-82
2022/10/04 06:45:04;;;;;;;9.77;9.47;;;6.50;99.90;;;;;;5080215;28;20221;-83
2022/10/04 06:47:59;;;;;;;9.80;9.50;;;6.60;99.90;;;;;;5079899;28;20237;-81
2022/10/04 06:50:35;;;;;;;9.77;9.47;;;6.60;99.90;;;;;;5080975;28;20303;-82
2022/10/04 06:53:24;;;;;;;9.70;9.40;;;6.70;99.90;;;;;;5080793;28;20242;-83
2022/10/04 06:56:27;;;;;;;9.43;9.13;;;6.70;99.90;;;;;;5081031;28;20229;-83
2022/10/04 06:59:26;;;;;;;9.60;9.30;;;6.80;99.90;;;;;;5080438;28;20303;-83
2022/10/04 07:04:50;;;;;;;9.87;9.57;;;6.90;99.90;;;;;;5082727;28;20241;-83
2022/10/04 07:07:34;;;;;;;9.73;9.43;;;6.90;99.90;;;;;;5083232;28;20232;-83
2022/10/04 07:10:18;;;;;;;9.63;9.33;;;7.00;99.90;;;;;;5083055;28;20234;-83
2022/10/04 07:13:03;;;;;;;9.80;9.50;;;7.00;99.90;;;;;;5084163;28;20252;-83
2022/10/04 07:15:40;;;;;;;9.90;9.60;;;7.10;99.90;;;;;;5084008;28;20226;-82
2022/10/04 07:18:19;;;;;;;9.70;9.40;;;7.20;99.90;;;;;;5084384;28;20221;-83
2022/10/04 07:20:49;;;;;;;9.67;9.37;;;7.30;99.90;;;;;;5084128;28;20229;-82
2022/10/04 07:23:27;;;;;;;9.93;9.63;;;7.40;99.90;;;;;;5083857;28;20241;-82
2022/10/04 07:26:02;;;;;;;9.63;9.33;;;7.50;99.90;;;;;;5082803;28;20230;-81
2022/10/04 07:31:28;;;;;;;9.87;9.57;;;7.60;99.90;;;;;;5084181;28;20218;-81
2022/10/04 07:34:00;;;;;;;9.97;9.67;;;7.60;99.90;;;;;;5083508;28;20238;-81
2022/10/04 07:36:40;;;;;;;10.17;9.87;;;7.70;99.90;;;;;;5083595;28;20230;-81
2022/10/04 07:39:15;;;;;;;10.17;9.87;;;7.80;99.90;;;;;;5084534;28;20241;-82
2022/10/04 07:41:52;;;;;;;10.03;9.73;;;7.90;99.90;;;;;;5083353;28;20246;-81
2022/10/04 07:44:33;;;;;;;10.00;9.70;;;8.10;99.90;;;;;;5082922;28;20234;-81
2022/10/04 07:47:11;;;;;;;10.40;10.10;;;8.10;99.90;;;;;;5082355;28;20241;-81
2022/10/04 07:49:40;;;;;;;9.87;9.57;;;8.30;99.90;;;;;;5082883;28;20236;-81
2022/10/04 07:52:34;;;;;;;9.77;9.47;;;8.40;99.90;;;;;;5082813;28;20244;-81
2022/10/04 07:55:17;;;;;;;9.93;9.63;;;8.60;99.90;;;;;;5083071;28;20244;-81
2022/10/04 07:58:01;;;;;;;9.73;9.43;;;8.80;99.90;;;;;;5082799;28;20293;-81
2022/10/04 08:00:40;;;;;;;9.67;9.37;;;8.90;99.90;;;;;;5082368;28;20277;-81
2022/10/04 08:03:50;;;;;;;9.40;9.10;;;8.90;99.90;;;;;;5082359;28;20261;-81
2022/10/04 08:06:36;;;;;;;9.87;9.57;;;9.00;99.90;;;;;;5073764;28;20713;-80
2022/10/04 08:09:40;;;;;;;9.53;9.23;;;9.20;99.90;;;;;;5060855;28;20242;-81
2022/10/04 08:12:20;;;;;;;9.40;9.10;;;9.40;99.90;;;;;;5061455;28;20234;-81
2022/10/04 08:15:20;;;;;;;9.20;8.90;;;9.60;99.90;;;;;;5062019;28;20241;-81
2022/10/04 08:18:05;;;;;;;9.27;8.97;;;9.70;99.90;;;;;;5061903;28;20297;-82
2022/10/04 08:20:43;;;;;;;9.10;8.80;;;9.90;99.90;;;;;;5060878;28;20257;-80
2022/10/04 08:23:40;;;;;;;9.07;8.77;;;9.90;99.90;;;;;;5060007;28;20248;-78
2022/10/04 08:26:50;;;;;;;8.80;8.60;;;10.00;99.90;;;;;;5060571;28;20710;-79
2022/10/04 08:29:41;;;;;;;9.10;8.80;;;10.20;99.90;;;;;;5067981;28;20261;-79
2022/10/04 08:32:33;;;;;;;9.20;8.90;;;10.30;99.90;;;;;;5065048;28;20246;-78
2022/10/04 08:35:32;;;;;;;9.23;8.93;;;10.40;99.90;;;;;;5062013;28;20235;-81
2022/10/04 08:38:41;;;;;;;9.17;8.87;;;10.50;99.90;;;;;;5062746;28;20227;-80
2022/10/04 08:42:00;;;;;;;9.63;9.33;;;10.60;99.90;;;;;;5061146;28;20239;-80
2022/10/04 08:45:12;;;;;;;9.50;9.20;;;10.80;99.90;;;;;;5061093;28;20230;-81
2022/10/04 08:48:34;;;;;;;9.47;9.17;;;11.20;99.90;;;;;;5060518;28;20257;-80
2022/10/04 08:52:03;;;;;;;9.43;9.13;;;11.50;99.90;;;;;;5061539;28;20235;-80
2022/10/04 08:55:36;;;;;;;9.20;8.90;;;11.80;99.90;;;;;;5076354;28;20240;-81
2022/10/04 08:58:16;;;;;;;9.40;9.10;;;12.00;99.90;;;;;;5067877;28;20282;-81
2022/10/04 09:01:46;;;;;;;9.27;8.97;;;12.20;99.90;;;;;;5071349;28;20230;-80
2022/10/04 09:05:09;;;;;;;9.20;8.90;;;12.30;99.90;;;;;;5052955;28;20222;-80
2022/10/04 09:08:11;;;;;;;9.03;8.73;;;12.40;99.90;;;;;;5071208;28;20231;-80
2022/10/04 09:11:06;;;;;;;9.40;9.10;;;12.40;99.90;;;;;;5067665;28;20290;-80
2022/10/04 09:13:55;;;;;;;9.30;9.00;;;12.50;99.90;;;;;;5078287;28;20234;-81
2022/10/04 09:16:35;;;;;;;9.30;9.00;;;12.50;99.90;;;;;;5074699;28;20234;-80
2022/10/04 09:19:22;;;;;;;9.33;9.03;;;12.60;99.90;;;;;;5078737;28;20222;-79
2022/10/04 09:22:18;;;;;;;9.13;8.83;;;12.60;99.90;;;;;;5079740;28;20238;-84
2022/10/04 09:25:22;;;;;;;9.30;9.00;;;12.70;99.90;;;;;;5071329;28;20223;-82
2022/10/04 09:28:19;;;;;;;8.77;8.57;;;12.90;99.90;;;;;;5070489;28;20231;-82
2022/10/04 09:31:32;;;;;;;9.13;8.83;;;13.00;99.90;;;;;;5084733;28;20308;-83
2022/10/04 09:34:27;;;;;;;9.33;9.03;;;13.10;99.90;;;;;;5090495;28;20249;-82
2022/10/04 09:37:16;;;;;;;9.40;9.10;;;13.30;99.90;;;;;;5083988;28;20733;-82
2022/10/04 09:40:36;;;;;;;9.50;9.20;;;13.40;99.90;;;;;;5063942;28;20231;-81
2022/10/04 09:43:50;;;;;;;9.37;9.07;;;13.60;99.90;;;;;;5032920;28;20235;-81
2022/10/04 09:46:56;;;;;;;9.20;8.90;;;13.90;99.90;;;;;;5072585;28;20222;-80
2022/10/04 09:49:52;;;;;;;9.40;9.10;;;14.20;99.90;;;;;;5076993;28;20230;-82
2022/10/04 09:52:40;;;;;;;9.40;9.10;;;14.50;99.90;;;;;;5081208;28;20230;-81
2022/10/04 09:55:26;;;;;;;9.60;9.30;;;14.70;99.90;;;;;;5081963;28;20321;-81
2022/10/04 09:58:42;;;;;;;9.80;9.50;;;14.80;99.90;;;;;;5083593;28;20294;-83
2022/10/04 10:01:17;;;;;;;9.80;9.50;;;15.10;99.90;;;;;;5080829;28;20237;-81
2022/10/04 10:04:19;;;;;;;9.65;9.35;;;15.50;99.90;;;;;;5081512;28;20238;-82
2022/10/04 10:07:16;;;;;;;10.00;9.70;;;16.00;99.90;;;;;;5072243;28;20238;-81
2022/10/04 10:16:24;;;;;;;10.40;10.10;;;16.80;99.90;;;;;;5087027;28;20774;-81
2022/10/04 10:19:17;;;;;;;10.40;10.10;;;17.00;99.90;;;;;;5061061;28;20235;-82
2022/10/04 10:22:04;;;;;;;10.65;10.35;;;17.00;99.90;;;;;;5074852;28;20230;-81
2022/10/04 10:25:08;;;;;;;10.43;10.13;;;17.30;99.90;;;;;;5091917;28;20220;-82
2022/10/04 10:28:03;;;;;;;10.75;10.45;;;17.50;99.90;;;;;;5086379;28;20236;-82
2022/10/04 10:30:52;;;;;;;10.50;10.20;;;17.80;99.90;;;;;;5080108;28;20341;-82
2022/10/04 10:33:41;;;;;;;10.50;10.20;;;17.70;99.90;;;;;;5079829;28;20238;-82
2022/10/04 10:36:45;;;;;;;10.57;10.27;;;17.60;99.90;;;;;;5080644;28;20305;-82
2022/10/04 10:39:50;;;;;;;10.82;10.52;;;17.60;99.90;;;;;;5062230;28;20242;-80
2022/10/04 10:43:19;;;;;;;10.60;10.30;;;17.60;99.90;;;;;;5079758;28;20321;-81
2022/10/04 10:46:22;;;;;;;11.07;10.77;;;17.70;99.90;;;;;;5019893;28;20311;-80
2022/10/04 10:49:31;;;;;;;10.70;10.40;;;18.00;99.90;;;;;;5020893;28;20224;-82
2022/10/04 10:53:07;;;;;;;10.80;10.50;;;18.30;99.90;;;;;;5059311;28;20238;-81
2022/10/04 10:56:31;;;;;;;11.40;11.00;;;18.60;99.90;;;;;;5061166;28;20244;-81
2022/10/04 10:59:51;;;;;;;11.00;10.70;;;18.70;99.90;;;;;;5061257;28;20230;-79
2022/10/04 11:02:41;;;;;;;10.70;10.40;;;18.50;99.90;;;;;;5052406;28;20260;-83
2022/10/04 11:06:03;;;;;;;10.77;10.48;;;18.20;99.90;;;;;;5083481;28;20229;-81
2022/10/04 11:09:37;;;;;;;10.85;10.55;;;18.40;99.90;;;;;;5083654;28;20250;-82
2022/10/04 11:13:04;;;;;;;10.90;10.60;;;18.30;99.90;;;;;;5071202;28;20272;-84
2022/10/04 11:15:42;;;;;;;10.85;10.55;;;18.40;99.90;;;;;;5074227;28;20236;-81
2022/10/04 11:18:59;;;;;;;10.60;10.30;;;18.50;99.90;;;;;;5090783;28;20236;-80
2022/10/04 11:22:29;;;;;;;10.40;10.10;;;18.60;99.90;;;;;;5089043;28;20234;-80
2022/10/04 11:26:07;;;;;;;10.13;9.82;;;18.60;99.90;;;;;;5089593;28;20232;-82
2022/10/04 11:28:46;;;;;;;10.38;10.07;;;18.40;99.90;;;;;;5005389;28;20232;-82
2022/10/04 11:31:53;;;;;;;10.48;10.18;;;18.20;99.90;;;;;;5082268;28;21076;-80
2022/10/04 11:35:24;;;;;;;10.50;10.20;;;18.20;99.90;;;;;;5081191;28;20230;-81
2022/10/04 11:38:10;;;;;;;10.50;10.20;;;18.20;99.90;;;;;;5060724;28;20256;-81
2022/10/04 11:41:00;;;;;;;10.60;10.30;;;18.20;99.90;;;;;;5060845;28;20227;-82
2022/10/04 11:44:05;;;;;;;10.57;10.27;;;18.20;99.90;;;;;;5061659;28;20265;-82
2022/10/04 11:46:42;;;;;;;10.50;10.20;;;18.40;99.90;;;;;;5060074;28;20293;-84
2022/10/04 11:49:55;;;;;;;10.60;10.30;;;18.50;99.90;;;;;;5061537;28;20269;-80
2022/10/04 11:53:13;;;;;;;10.70;10.40;;;18.50;99.90;;;;;;5073299;28;20233;-85
2022/10/04 11:56:03;;;;;;;10.80;10.50;;;18.40;99.90;;;;;;5071278;28;20240;-81
2022/10/04 11:58:57;;;;;;;11.05;10.75;;;18.70;99.90;;;;;;5086645;28;20234;-82
2022/10/04 12:02:12;;;;;;;10.65;10.35;;;19.00;99.90;;;;;;5086784;28;20292;-81
2022/10/04 12:05:41;;;;;;;11.30;11.00;;;19.20;99.90;;;;;;5082015;28;20230;-80
2022/10/04 12:08:29;;;;;;;11.15;10.85;;;19.50;99.90;;;;;;5062961;28;20234;-80
2022/10/04 12:15:03;;;;;;;11.25;10.95;;;20.10;99.90;;;;;;5062803;28;20281;-80
2022/10/04 12:18:27;;;;;;;10.90;10.60;;;20.40;99.90;;;;;;5065066;28;20227;-81
2022/10/04 12:21:30;;;;;;;11.00;10.70;;;20.30;99.90;;;;;;5063334;28;20239;-80
2022/10/04 12:24:48;;;;;;;10.98;10.68;;;20.00;99.90;;;;;;5072210;28;20226;-79
2022/10/04 12:27:49;;;;;;;11.07;10.77;;;20.10;99.90;;;;;;5064253;28;20241;-79
2022/10/04 12:30:36;;;;;;;10.75;10.45;;;20.30;99.90;;;;;;5063339;28;20229;-80
2022/10/04 12:33:21;;;;;;;10.68;10.38;;;20.70;99.90;;;;;;5063823;28;20238;-79
2022/10/04 12:36:11;;;;;;;10.80;10.50;;;20.90;99.90;;;;;;5063687;28;20257;-80
2022/10/04 12:38:58;;;;;;;11.00;10.70;;;21.00;99.90;;;;;;5062857;28;20229;-80
2022/10/04 12:41:40;;;;;;;10.73;10.43;;;21.40;99.90;;;;;;5063889;28;20231;-79
2022/10/04 12:44:33;;;;;;;10.90;10.60;;;21.80;99.90;;;;;;5062723;28;20229;-79
2022/10/04 12:47:33;;;;;;;10.65;10.35;;;22.00;99.90;;;;;;5062333;28;20235;-79
2022/10/04 12:50:14;;;;;;;10.63;10.32;;;21.90;99.90;;;;;;5062171;28;20237;-80
2022/10/04 12:52:53;;;;;;;10.80;10.50;;;21.60;99.90;;;;;;5061826;28;20219;-80
2022/10/04 12:55:51;;;;;;;10.70;10.40;;;21.30;99.90;;;;;;5062484;28;20231;-80
2022/10/04 12:58:28;;;;;;;10.57;10.27;;;21.30;99.90;;;;;;5074568;28;20215;-79
2022/10/04 13:01:11;;;;;;;10.50;10.20;;;21.40;99.90;;;;;;5068763;28;20241;-79
2022/10/04 13:04:10;;;;;;;11.00;10.70;;;21.30;99.90;;;;;;5062964;28;20230;-80
2022/10/04 13:06:54;;;;;;;10.68;10.38;;;21.10;99.90;;;;;;5062777;28;20237;-80
2022/10/04 13:09:40;;;;;;;10.70;10.40;;;20.90;99.90;;;;;;5064430;28;20318;-79
2022/10/04 13:12:25;;;;;;;10.80;10.50;;;21.10;99.90;;;;;;5061685;28;20238;-79
2022/10/04 13:15:21;;;;;;;10.98;10.68;;;21.40;99.90;;;;;;5061039;28;20237;-79
2022/10/04 13:18:08;;;;;;;10.88;10.57;;;21.70;99.90;;;;;;5062075;28;20234;-79
2022/10/04 13:20:49;;;;;;;10.80;10.50;;;21.70;99.90;;;;;;5062060;28;20699;-80
2022/10/04 13:23:37;;;;;;;10.75;10.45;;;21.60;99.90;;;;;;5061240;28;20241;-80
2022/10/04 13:26:29;;;;;;;10.90;10.60;;;21.40;99.90;;;;;;5061826;28;20226;-79
2022/10/04 13:29:06;;;;;;;11.27;10.98;;;21.40;99.90;;;;;;5062359;28;20283;-79
2022/10/04 13:31:39;;;;;;;11.02;10.73;;;21.60;99.90;;;;;;5063494;28;20252;-81
2022/10/04 13:34:20;;;;;;;11.00;10.70;;;22.10;99.90;;;;;;5066280;28;20227;-80
2022/10/04 13:37:09;;;;;;;10.98;10.68;;;22.50;99.90;;;;;;5066289;28;20218;-80
2022/10/04 13:40:21;;;;;;;11.20;10.90;;;22.80;99.90;;;;;;5062851;28;20265;-81
2022/10/04 13:43:27;;;;;;;10.98;10.68;;;22.90;99.90;;;;;;5045100;28;20242;-78
2022/10/04 13:46:09;;;;;;;10.75;10.45;;;23.00;99.90;;;;;;5060625;28;20300;-80
2022/10/04 13:48:57;;;;;;;10.85;10.55;;;22.90;99.90;;;;;;5062494;28;20222;-79
2022/10/04 13:51:48;;;;;;;10.88;10.57;;;23.10;99.90;;;;;;5061270;28;20242;-79
2022/10/04 13:57:27;;;;;;;10.60;10.30;;;23.00;99.90;;;;;;5063638;28;20227;-79
2022/10/04 14:00:04;;;;;;;10.48;10.18;;;22.70;99.90;;;;;;5063626;28;20206;-79
2022/10/04 14:03:23;;;;;;;10.30;10.00;;;22.50;99.90;;;;;;5062035;28;20232;-79
2022/10/04 14:06:34;;;;;;;10.32;10.02;;;22.20;99.90;;;;;;5060409;28;20235;-79
2022/10/04 14:09:46;;;;;;;10.27;9.98;;;22.10;99.90;;;;;;5062065;28;20321;-79
2022/10/04 14:13:01;;;;;;;10.45;10.15;;;22.30;99.90;;;;;;5060314;28;20266;-78
2022/10/04 14:16:00;;;;;;;10.80;10.50;;;22.50;99.90;;;;;;5062734;28;20238;-80
2022/10/04 14:19:08;;;;;;;10.80;10.50;;;22.70;99.90;;;;;;5064592;28;20238;-79
2022/10/04 14:22:52;;;;;;;11.07;10.77;;;22.50;99.90;;;;;;5067486;28;20238;-79
2022/10/04 14:26:18;;;;;;;10.80;10.50;;;22.20;99.90;;;;;;5073206;28;20292;-80
2022/10/04 14:29:30;;;;;;;10.40;10.10;;;22.30;99.90;;;;;;5067934;28;20234;-81
2022/10/04 14:32:51;;;;;;;10.70;10.40;;;22.20;99.90;;;;;;5043116;28;20292;-81
2022/10/04 14:35:26;;;;;;;10.82;10.52;;;21.90;99.90;;;;;;5063641;28;20234;-80
2022/10/04 14:38:58;;;;;;;10.70;10.40;;;21.60;99.90;;;;;;5086653;28;20501;-82
2022/10/04 14:42:08;;;;;;;10.45;10.15;;;21.40;99.90;;;;;;5087805;28;20265;-83
2022/10/04 14:45:25;;;;;;;10.70;10.40;;;21.20;99.90;;;;;;5089535;28;20237;-82
2022/10/04 14:48:51;;;;;;;10.13;9.82;;;21.10;99.90;;;;;;5081104;28;20278;-82
2022/10/04 14:51:42;;;;;;;10.05;9.75;;;21.10;99.90;;;;;;5085351;28;20274;-82
2022/10/04 14:54:20;;;;;;;10.00;9.70;;;21.10;99.90;;;;;;5099042;28;20282;-81
2022/10/04 14:57:07;;;;;;;10.10;9.80;;;21.30;99.90;;;;;;5099098;28;20225;-82
2022/10/04 15:00:12;;;;;;;10.10;9.80;;;21.50;99.90;;;;;;5096674;28;20289;-82
2022/10/04 15:03:13;;;;;;;10.40;10.10;;;21.60;99.90;;;;;;5096519;28;20228;-82